createdAt,value
2023-05-12T00:00:58.736Z,4.93
2023-05-12T00:03:27.335Z,3.80
2023-05-12T00:05:55.626Z,5.23
2023-05-12T00:08:23.833Z,4.97
2023-05-12T00:10:53.470Z,4.27
2023-05-12T00:13:23.692Z,5.40
2023-05-12T00:15:52.670Z,4.60
2023-05-12T00:18:21.019Z,4.80
2023-05-12T00:20:49.330Z,4.60
2023-05-12T00:23:17.500Z,4.97
2023-05-12T00:25:45.830Z,5.23
2023-05-12T00:28:15.366Z,4.83
2023-05-12T00:30:43.580Z,5.37
2023-05-12T00:33:11.775Z,5.10
2023-05-12T00:35:39.959Z,5.30
2023-05-12T00:38:08.231Z,5.50
2023-05-12T00:40:36.455Z,4.80
2023-05-12T00:43:04.631Z,5.40
2023-05-12T00:45:34.693Z,5.20
2023-05-12T00:48:03.549Z,5.70
2023-05-12T00:50:32.313Z,5.97
2023-05-12T00:53:02.306Z,5.00
2023-05-12T00:55:31.035Z,5.37
2023-05-12T00:58:00.417Z,6.13
2023-05-12T01:00:29.568Z,5.70
2023-05-12T01:02:59.520Z,5.73
2023-05-12T01:05:37.552Z,5.80
2023-05-12T01:08:07.221Z,5.80
2023-05-12T01:10:36.124Z,6.10
2023-05-12T01:13:04.371Z,5.30
2023-05-12T01:15:34.246Z,5.40
2023-05-12T01:18:06.660Z,5.75
2023-05-12T01:20:36.366Z,5.97
2023-05-12T01:23:06.434Z,5.87
2023-05-12T01:25:35.356Z,5.63
2023-05-12T01:28:06.826Z,6.30
2023-05-12T01:30:39.068Z,6.43
2023-05-12T01:33:07.438Z,6.00
2023-05-12T01:35:35.646Z,5.80
2023-05-12T01:38:04.291Z,6.53
2023-05-12T01:40:35.395Z,5.83
2023-05-12T01:43:05.570Z,6.10
2023-05-12T01:45:34.901Z,6.20
2023-05-12T01:48:03.188Z,6.00
2023-05-12T01:50:31.663Z,5.40
2023-05-12T01:53:00.527Z,6.40
2023-05-12T01:55:29.254Z,5.60
2023-05-12T01:57:58.930Z,6.00
2023-05-12T02:00:30.457Z,5.80
2023-05-12T02:03:00.058Z,5.37
2023-05-12T02:05:28.339Z,6.37
2023-05-12T02:07:56.512Z,5.53
2023-05-12T02:10:24.709Z,6.07
2023-05-12T02:12:52.868Z,5.40
2023-05-12T02:15:21.135Z,5.50
2023-05-12T02:17:53.942Z,5.37
2023-05-12T02:20:22.907Z,5.60
2023-05-12T02:22:51.176Z,5.70
2023-05-12T02:25:19.365Z,6.20
2023-05-12T02:27:48.411Z,5.80
2023-05-12T02:30:18.845Z,5.77
2023-05-12T02:32:47.784Z,5.60
2023-05-12T02:35:17.362Z,6.27
2023-05-12T02:37:45.770Z,6.70
2023-05-12T02:40:16.053Z,6.50
2023-05-12T02:42:45.548Z,6.23
2023-05-12T02:45:14.142Z,6.70
2023-05-12T02:47:42.373Z,6.27
2023-05-12T02:50:11.391Z,6.90
2023-05-12T02:52:41.003Z,6.77
2023-05-12T02:55:10.018Z,5.90
2023-05-12T02:57:38.295Z,6.33
2023-05-12T03:00:07.849Z,7.07
2023-05-12T03:02:40.521Z,5.77
2023-05-12T03:05:10.123Z,6.20
2023-05-12T03:07:38.632Z,6.70
2023-05-12T03:10:09.945Z,6.90
2023-05-12T03:12:38.280Z,6.57
2023-05-12T03:15:07.802Z,6.80
2023-05-12T03:17:36.165Z,7.00
2023-05-12T03:20:05.181Z,6.13
2023-05-12T03:22:33.419Z,6.50
2023-05-12T03:25:01.764Z,6.10
2023-05-12T03:27:31.709Z,7.03
2023-05-12T03:30:01.601Z,9.63
2023-05-12T03:32:31.034Z,6.57
2023-05-12T03:34:59.266Z,7.30
2023-05-12T03:37:27.436Z,6.63
2023-05-12T03:39:56.136Z,6.60
2023-05-12T03:42:24.875Z,6.30
2023-05-12T03:44:54.428Z,6.90
2023-05-12T03:47:22.821Z,6.40
2023-05-12T03:49:51.103Z,6.90
2023-05-12T03:52:19.648Z,7.03
2023-05-12T03:54:47.841Z,6.80
2023-05-12T03:57:15.976Z,6.33
2023-05-12T03:59:44.130Z,6.73
2023-05-12T04:02:14.015Z,7.80
2023-05-12T04:04:42.253Z,6.30
2023-05-12T04:07:10.448Z,6.20
2023-05-12T04:09:38.600Z,6.50
2023-05-12T04:12:07.504Z,6.27
2023-05-12T04:14:42.848Z,6.63
2023-05-12T04:17:13.033Z,5.90
2023-05-12T04:19:41.213Z,6.47
2023-05-12T04:22:09.405Z,6.43
2023-05-12T04:24:38.402Z,6.47
2023-05-12T04:27:07.412Z,6.43
2023-05-12T04:29:37.024Z,6.37
2023-05-12T04:32:06.153Z,6.27
2023-05-12T04:34:36.814Z,6.50
2023-05-12T04:37:05.198Z,5.90
2023-05-12T04:39:33.406Z,5.47
2023-05-12T04:42:02.519Z,7.40
2023-05-12T04:44:33.731Z,6.73
2023-05-12T04:47:02.093Z,6.57
2023-05-12T04:49:32.028Z,5.83
2023-05-12T04:52:01.692Z,6.43
2023-05-12T04:54:29.872Z,6.30
2023-05-12T04:56:57.986Z,6.97
2023-05-12T04:59:26.316Z,6.70
2023-05-12T05:01:56.094Z,5.77
2023-05-12T05:04:24.533Z,6.17
2023-05-12T05:06:53.062Z,6.83
2023-05-12T05:09:22.767Z,6.07
2023-05-12T05:11:51.132Z,6.73
2023-05-12T05:14:19.555Z,6.47
2023-05-12T05:16:48.380Z,6.50
2023-05-12T05:19:23.334Z,7.47
2023-05-12T05:22:03.386Z,5.67
2023-05-12T05:24:33.164Z,6.53
2023-05-12T05:27:01.369Z,6.50
2023-05-12T05:29:30.345Z,6.10
2023-05-12T05:31:58.511Z,6.90
2023-05-12T05:34:26.762Z,6.13
2023-05-12T05:36:55.147Z,6.17
2023-05-12T05:39:23.567Z,6.23
2023-05-12T05:41:53.506Z,6.33
2023-05-12T05:44:21.661Z,5.77
2023-05-12T05:46:49.936Z,5.50
2023-05-12T05:49:18.446Z,5.20
2023-05-12T05:51:46.616Z,6.70
2023-05-12T05:54:15.179Z,5.97
2023-05-12T05:56:43.487Z,6.47
2023-05-12T05:59:14.314Z,5.30
2023-05-12T06:01:42.611Z,6.17
2023-05-12T06:04:11.252Z,5.53
2023-05-12T06:06:39.805Z,5.70
2023-05-12T06:09:09.616Z,6.33
2023-05-12T06:11:37.760Z,5.57
2023-05-12T06:14:06.068Z,5.80
2023-05-12T06:16:35.867Z,5.80
2023-05-12T06:19:04.329Z,6.07
2023-05-12T06:21:33.420Z,5.50
2023-05-12T06:24:01.589Z,6.13
2023-05-12T06:26:29.792Z,5.87
2023-05-12T06:28:58.011Z,6.33
2023-05-12T06:31:26.391Z,5.70
2023-05-12T06:33:55.963Z,5.57
2023-05-12T06:36:24.276Z,5.57
2023-05-12T06:38:54.200Z,5.70
2023-05-12T06:41:24.915Z,7.33
2023-05-12T06:43:53.352Z,5.80
2023-05-12T06:46:28.785Z,5.80
2023-05-12T06:48:58.383Z,6.40
2023-05-12T06:51:26.577Z,5.63
2023-05-12T06:53:56.015Z,6.50
2023-05-12T06:56:24.649Z,5.03
2023-05-12T06:58:54.337Z,5.83
2023-05-12T07:01:22.595Z,5.40
2023-05-12T07:03:50.893Z,5.83
2023-05-12T07:06:20.408Z,4.43
2023-05-12T07:08:48.857Z,4.10
2023-05-12T07:11:20.044Z,5.37
2023-05-12T07:13:48.781Z,5.40
2023-05-12T07:16:17.852Z,4.40
2023-05-12T07:18:46.655Z,5.60
2023-05-12T07:21:15.649Z,5.60
2023-05-12T07:23:45.565Z,5.40
2023-05-12T07:26:13.742Z,6.00
2023-05-12T07:28:41.949Z,6.03
2023-05-12T07:31:10.533Z,4.80
2023-05-12T07:33:38.814Z,5.00
2023-05-12T07:36:08.946Z,4.30
2023-05-12T07:38:37.186Z,5.90
2023-05-12T07:41:07.009Z,4.90
2023-05-12T07:43:35.219Z,4.80
2023-05-12T07:46:03.373Z,4.30
2023-05-12T07:48:31.574Z,4.60
2023-05-12T07:50:59.748Z,5.17
2023-05-12T07:53:27.936Z,4.90
2023-05-12T07:55:56.205Z,5.03
2023-05-12T07:58:26.105Z,5.03
2023-05-12T08:00:54.651Z,4.77
2023-05-12T08:03:22.976Z,3.90
2023-05-12T08:05:51.182Z,4.57
2023-05-12T08:08:19.364Z,4.50
2023-05-12T08:10:47.615Z,4.37
2023-05-12T08:13:15.932Z,5.17
2023-05-12T08:15:47.648Z,4.70
2023-05-12T08:18:15.817Z,4.40
2023-05-12T08:20:44.396Z,4.53
2023-05-12T08:23:12.591Z,4.40
2023-05-12T08:25:41.771Z,4.13
2023-05-12T08:28:09.970Z,3.97
2023-05-12T08:30:38.256Z,4.80
2023-05-12T08:33:07.992Z,3.80
2023-05-12T08:35:36.874Z,3.97
2023-05-12T08:38:05.155Z,3.90
2023-05-12T08:40:39.066Z,3.43
2023-05-12T08:43:11.002Z,3.60
2023-05-12T08:45:40.996Z,3.43
2023-05-12T08:48:11.796Z,3.70
2023-05-12T08:50:42.318Z,4.30
2023-05-12T08:53:12.134Z,4.13
2023-05-12T08:55:50.212Z,3.57
2023-05-12T08:58:37.858Z,3.77
2023-05-12T09:01:09.596Z,3.40
2023-05-12T09:03:39.317Z,3.60
2023-05-12T09:06:09.143Z,2.80
2023-05-12T09:08:37.790Z,3.57
2023-05-12T09:11:06.388Z,3.10
2023-05-12T09:13:40.961Z,3.37
2023-05-12T09:16:12.841Z,2.63
2023-05-12T09:18:51.432Z,3.27
2023-05-12T09:21:20.585Z,3.13
2023-05-12T09:23:56.865Z,2.70
2023-05-12T09:26:26.038Z,3.67
2023-05-12T09:28:55.978Z,2.80
2023-05-12T09:31:26.036Z,3.10
2023-05-12T09:33:56.605Z,2.40
2023-05-12T09:36:26.009Z,3.43
2023-05-12T09:39:04.413Z,3.07
2023-05-12T09:41:32.640Z,3.10
2023-05-12T09:44:01.404Z,3.23
2023-05-12T09:46:29.792Z,2.27
2023-05-12T09:49:00.179Z,3.00
2023-05-12T09:51:29.313Z,2.70
2023-05-12T09:53:57.696Z,2.50
2023-05-12T09:56:28.900Z,2.83
2023-05-12T09:58:58.241Z,3.07
2023-05-12T10:01:27.881Z,2.40
2023-05-12T10:03:57.317Z,2.57
2023-05-12T10:06:29.756Z,2.47
2023-05-12T10:09:07.148Z,2.13
2023-05-12T10:11:36.079Z,1.90
2023-05-12T10:14:04.801Z,2.23
2023-05-12T10:16:34.688Z,2.23
2023-05-12T10:19:04.483Z,2.60
2023-05-12T10:21:37.802Z,3.10
2023-05-12T10:24:06.296Z,2.30
2023-05-12T10:26:34.925Z,2.80
2023-05-12T10:29:03.308Z,3.23
2023-05-12T10:31:31.882Z,2.80
2023-05-12T10:34:01.278Z,2.67
2023-05-12T10:36:29.859Z,2.73
2023-05-12T10:39:06.182Z,2.53
2023-05-12T10:41:35.691Z,2.20
2023-05-12T10:44:04.482Z,2.67
2023-05-12T10:46:32.708Z,2.97
2023-05-12T10:49:04.279Z,2.63
2023-05-12T10:51:34.141Z,2.77
2023-05-12T10:54:05.753Z,2.80
2023-05-12T10:56:46.898Z,2.77
2023-05-12T10:59:18.372Z,2.50
2023-05-12T11:02:03.057Z,3.00
2023-05-12T11:04:44.776Z,2.33
2023-05-12T11:07:15.561Z,2.97
2023-05-12T11:12:18.733Z,2.30
2023-05-12T11:14:47.955Z,2.47
2023-05-12T11:17:16.862Z,3.20
2023-05-12T11:19:47.784Z,2.30
2023-05-12T11:22:19.848Z,2.30
2023-05-12T11:24:50.778Z,2.30
2023-05-12T11:27:20.276Z,1.90
2023-05-12T11:29:57.404Z,1.90
2023-05-12T11:32:25.676Z,1.77
2023-05-12T11:34:53.925Z,2.30
2023-05-12T11:37:22.946Z,2.07
2023-05-12T11:39:53.753Z,2.40
2023-05-12T11:42:23.693Z,2.80
2023-05-12T11:44:55.737Z,2.40
2023-05-12T11:47:23.888Z,2.07
2023-05-12T11:49:54.656Z,2.30
2023-05-12T11:52:25.373Z,2.40
2023-05-12T11:55:00.202Z,2.50
2023-05-12T11:57:29.573Z,2.20
2023-05-12T12:00:00.303Z,2.33
2023-05-12T12:02:29.221Z,2.97
2023-05-12T12:04:58.071Z,2.60
2023-05-12T12:07:30.264Z,2.47
2023-05-12T12:10:00.860Z,2.00
2023-05-12T12:12:29.136Z,2.10
2023-05-12T12:15:00.418Z,2.00
2023-05-12T12:17:31.213Z,1.87
2023-05-12T12:19:59.522Z,2.40
2023-05-12T12:22:27.956Z,2.10
2023-05-12T12:24:56.111Z,2.20
2023-05-12T12:27:25.603Z,1.93
2023-05-12T12:29:53.741Z,2.70
2023-05-12T12:32:21.975Z,2.57
2023-05-12T12:34:50.147Z,2.23
2023-05-12T12:37:18.539Z,2.13
2023-05-12T12:39:47.667Z,2.93
2023-05-12T12:42:16.555Z,2.10
2023-05-12T12:44:47.922Z,2.80
2023-05-12T12:47:16.391Z,2.03
2023-05-12T12:49:44.952Z,2.30
2023-05-12T12:52:13.114Z,1.73
2023-05-12T12:54:41.876Z,2.17
2023-05-12T12:57:10.841Z,1.87
2023-05-12T12:59:39.051Z,2.13
2023-05-12T13:02:09.145Z,2.07
2023-05-12T13:04:37.674Z,2.80
2023-05-12T13:07:06.485Z,2.20
2023-05-12T13:09:34.763Z,2.20
2023-05-12T13:12:03.121Z,2.03
2023-05-12T13:14:31.451Z,1.70
2023-05-12T13:16:59.725Z,2.30
2023-05-12T13:19:29.272Z,2.43
2023-05-12T13:21:57.419Z,2.30
2023-05-12T13:24:25.672Z,2.00
2023-05-12T13:26:53.880Z,1.93
2023-05-12T13:29:22.132Z,3.27
2023-05-12T13:31:50.320Z,2.20
2023-05-12T13:34:18.492Z,2.50
2023-05-12T13:36:48.527Z,2.87
2023-05-12T13:39:18.407Z,2.13
2023-05-12T13:41:47.715Z,2.33
2023-05-12T13:44:15.901Z,2.30
2023-05-12T13:46:44.107Z,2.60
2023-05-12T13:49:13.047Z,2.10
2023-05-12T13:51:41.294Z,2.10
2023-05-12T13:54:10.792Z,2.77
2023-05-12T13:56:39.435Z,1.83
2023-05-12T13:59:09.353Z,2.07
2023-05-12T14:01:37.605Z,1.90
2023-05-12T14:04:05.898Z,1.67
2023-05-12T14:06:34.086Z,1.77
2023-05-12T14:09:02.406Z,2.07
2023-05-12T14:11:32.940Z,2.47
2023-05-12T14:14:03.304Z,2.30
2023-05-12T14:16:31.614Z,2.20
2023-05-12T14:19:00.716Z,2.53
2023-05-12T14:21:29.226Z,2.17
2023-05-12T14:23:57.380Z,2.40
2023-05-12T14:26:26.498Z,1.60
2023-05-12T14:28:56.159Z,2.33
2023-05-12T14:31:24.484Z,1.80
2023-05-12T14:33:53.343Z,2.10
2023-05-12T14:36:21.642Z,1.50
2023-05-12T14:38:49.953Z,2.17
2023-05-12T14:41:18.140Z,2.20
2023-05-12T14:43:46.607Z,1.77
2023-05-12T14:46:16.296Z,1.90
2023-05-12T14:48:44.714Z,2.00
2023-05-12T14:51:13.106Z,1.90
2023-05-12T14:53:41.486Z,1.93
2023-05-12T14:56:09.700Z,1.80
2023-05-12T14:58:37.905Z,2.57
2023-05-12T15:01:08.725Z,1.60
2023-05-12T15:03:39.029Z,1.87
2023-05-12T15:06:08.348Z,1.73
2023-05-12T15:08:36.778Z,1.77
2023-05-12T15:11:05.288Z,1.90
2023-05-12T15:13:33.632Z,2.17
2023-05-12T15:16:02.977Z,1.70
2023-05-12T15:18:31.545Z,2.03
2023-05-12T15:21:01.132Z,2.33
2023-05-12T15:23:29.300Z,1.90
2023-05-12T15:25:58.195Z,2.00
2023-05-12T15:28:27.699Z,1.70
2023-05-12T15:30:56.988Z,1.67
2023-05-12T15:33:25.987Z,1.70
2023-05-12T15:35:54.172Z,2.00
2023-05-12T15:38:23.678Z,1.83
2023-05-12T15:40:51.889Z,2.00
2023-05-12T15:43:20.061Z,1.47
2023-05-12T15:45:48.298Z,1.60
2023-05-12T15:48:16.859Z,1.40
2023-05-12T15:50:45.082Z,1.63
2023-05-12T15:53:13.700Z,2.27
2023-05-12T15:55:43.413Z,1.77
2023-05-12T15:58:11.804Z,1.70
2023-05-12T16:00:40.320Z,1.67
2023-05-12T16:03:09.221Z,2.10
2023-05-12T16:05:38.500Z,2.03
2023-05-12T16:08:06.952Z,2.20
2023-05-12T16:10:35.198Z,1.50
2023-05-12T16:13:04.836Z,2.13
2023-05-12T16:15:33.026Z,3.13
2023-05-12T16:18:01.244Z,1.70
2023-05-12T16:20:29.958Z,1.70
2023-05-12T16:22:58.241Z,1.67
2023-05-12T16:25:26.778Z,1.97
2023-05-12T16:27:54.935Z,1.80
2023-05-12T16:30:24.835Z,1.90
2023-05-12T16:32:53.018Z,2.00
2023-05-12T16:35:21.434Z,1.23
2023-05-12T16:37:49.718Z,1.83
2023-05-12T16:40:19.039Z,2.23
2023-05-12T16:42:47.207Z,2.03
2023-05-12T16:45:15.488Z,2.13
2023-05-12T16:47:45.055Z,2.10
2023-05-12T16:50:13.312Z,1.90
2023-05-12T16:52:41.507Z,1.60
2023-05-12T16:55:10.758Z,1.50
2023-05-12T16:57:41.355Z,1.80
2023-05-12T17:00:11.891Z,2.23
2023-05-12T17:02:40.333Z,1.50
2023-05-12T17:05:10.397Z,1.90
2023-05-12T17:07:38.575Z,1.70
2023-05-12T17:10:07.483Z,2.40
2023-05-12T17:12:36.746Z,2.03
2023-05-12T17:15:08.517Z,2.17
2023-05-12T17:17:37.031Z,2.30
2023-05-12T17:20:06.335Z,2.17
2023-05-12T17:22:41.279Z,1.73
2023-05-12T17:25:09.835Z,2.27
2023-05-12T17:27:38.050Z,1.40
2023-05-12T17:30:08.132Z,2.07
2023-05-12T17:32:36.551Z,1.70
2023-05-12T17:35:04.993Z,2.20
2023-05-12T17:37:33.732Z,1.97
2023-05-12T17:40:05.048Z,1.90
2023-05-12T17:42:33.289Z,1.67
2023-05-12T17:45:01.968Z,2.30
2023-05-12T17:47:30.272Z,1.60
2023-05-12T17:49:58.697Z,2.47
2023-05-12T17:52:27.419Z,1.63
2023-05-12T17:54:57.108Z,2.00
2023-05-12T17:57:27.121Z,2.10
2023-05-12T17:59:55.426Z,1.90
2023-05-12T18:02:23.746Z,1.67
2023-05-12T18:04:51.934Z,2.33
2023-05-12T18:07:20.171Z,2.20
2023-05-12T18:09:48.365Z,2.30
2023-05-12T18:12:17.988Z,2.00
2023-05-12T18:14:47.595Z,2.23
2023-05-12T18:17:16.721Z,2.43
2023-05-12T18:19:45.038Z,1.83
2023-05-12T18:22:14.539Z,1.80
2023-05-12T18:24:43.204Z,1.70
2023-05-12T18:27:11.513Z,2.13
2023-05-12T18:29:39.824Z,2.53
2023-05-12T18:32:09.760Z,2.20
2023-05-12T18:34:37.915Z,2.20
2023-05-12T18:37:06.116Z,1.93
2023-05-12T18:39:34.240Z,2.77
2023-05-12T18:42:02.406Z,2.60
2023-05-12T18:44:30.606Z,1.93
2023-05-12T18:46:58.823Z,2.37
2023-05-12T18:49:28.387Z,2.80
2023-05-12T18:51:56.497Z,2.80
2023-05-12T18:54:24.599Z,1.50
2023-05-12T18:56:52.720Z,2.03
2023-05-12T18:59:21.206Z,2.43
2023-05-12T19:01:49.414Z,2.37
2023-05-12T19:04:19.472Z,3.30
2023-05-12T19:06:49.890Z,2.47
2023-05-12T19:09:18.113Z,2.20
2023-05-12T19:11:46.843Z,2.90
2023-05-12T19:14:15.957Z,2.50
2023-05-12T19:16:46.472Z,2.03
2023-05-12T19:19:14.796Z,2.77
2023-05-12T19:21:43.037Z,2.63
2023-05-12T19:24:12.639Z,2.33
2023-05-12T19:26:41.057Z,2.57
2023-05-12T19:29:09.242Z,2.50
2023-05-12T19:31:37.457Z,3.20
2023-05-12T19:34:05.709Z,2.07
2023-05-12T19:36:33.969Z,4.17
2023-05-12T19:39:02.129Z,2.60
2023-05-12T19:41:31.873Z,2.80
2023-05-12T19:44:00.097Z,2.90
2023-05-12T19:46:28.461Z,2.80
2023-05-12T19:48:56.653Z,2.93
2023-05-12T19:51:24.892Z,2.17
2023-05-12T19:53:53.055Z,2.80
2023-05-12T19:56:21.306Z,3.40
2023-05-12T19:58:52.262Z,2.43
2023-05-12T20:01:20.761Z,2.53
2023-05-12T20:03:49.145Z,2.90
2023-05-12T20:06:17.738Z,3.20
2023-05-12T20:08:45.871Z,2.50
2023-05-12T20:11:14.106Z,3.67
2023-05-12T20:13:42.279Z,2.90
2023-05-12T20:16:11.999Z,3.30
2023-05-12T20:18:40.314Z,3.27
2023-05-12T20:21:08.484Z,2.90
2023-05-12T20:23:36.907Z,2.67
2023-05-12T20:26:05.398Z,2.80
2023-05-12T20:28:33.630Z,2.50
2023-05-12T20:31:01.972Z,3.20
2023-05-12T20:33:32.277Z,3.43
2023-05-12T20:36:00.598Z,3.73
2023-05-12T20:38:28.774Z,3.27
2023-05-12T20:40:56.906Z,3.20
2023-05-12T20:43:25.032Z,3.20
2023-05-12T20:45:53.345Z,3.03
2023-05-12T20:48:21.708Z,3.43
2023-05-12T20:50:52.227Z,3.97
2023-05-12T20:53:20.606Z,3.13
2023-05-12T20:55:48.925Z,4.17
2023-05-12T20:58:17.149Z,3.50
2023-05-12T21:00:45.473Z,3.93
2023-05-12T21:03:17.253Z,3.53
2023-05-12T21:05:47.720Z,3.63
2023-05-12T21:08:17.284Z,4.50
2023-05-12T21:10:45.451Z,3.90
2023-05-12T21:13:13.598Z,3.43
2023-05-12T21:15:41.867Z,3.80
2023-05-12T21:18:10.079Z,3.20
2023-05-12T21:20:38.333Z,2.90
2023-05-12T21:23:09.291Z,3.93
2023-05-12T21:25:38.920Z,3.90
2023-05-12T21:28:07.933Z,3.57
2023-05-12T21:30:37.270Z,3.43
2023-05-12T21:33:05.939Z,3.37
2023-05-12T21:35:34.202Z,3.63
2023-05-12T21:38:02.628Z,3.23
2023-05-12T21:40:30.863Z,3.13
2023-05-12T21:43:00.517Z,3.27
2023-05-12T21:45:28.677Z,3.57
2023-05-12T21:47:56.859Z,4.27
2023-05-12T21:50:25.100Z,3.70
2023-05-12T21:52:53.281Z,4.63
2023-05-12T21:55:21.689Z,4.03
2023-05-12T21:57:49.826Z,4.17
2023-05-12T22:00:21.481Z,3.70
2023-05-12T22:02:50.360Z,4.57
2023-05-12T22:05:18.976Z,4.17
2023-05-12T22:07:47.845Z,3.57
2023-05-12T22:10:16.112Z,5.87
2023-05-12T22:12:45.679Z,3.60
2023-05-12T22:15:14.168Z,3.90
2023-05-12T22:17:45.460Z,4.10
2023-05-12T22:20:14.479Z,3.87
2023-05-12T22:22:42.637Z,3.90
2023-05-12T22:25:11.153Z,4.30
2023-05-12T22:27:39.308Z,3.30
2023-05-12T22:30:10.082Z,3.90
2023-05-12T22:32:38.729Z,4.17
2023-05-12T22:35:09.913Z,4.30
2023-05-12T22:37:38.097Z,3.80
2023-05-12T22:40:07.897Z,4.20
2023-05-12T22:42:36.141Z,4.17
2023-05-12T22:45:05.056Z,4.43
2023-05-12T22:47:33.432Z,4.47
2023-05-12T22:50:01.854Z,4.40
2023-05-12T22:52:31.378Z,3.90
2023-05-12T22:54:59.668Z,4.20
2023-05-12T22:57:27.925Z,4.33
2023-05-12T22:59:56.270Z,4.53
2023-05-12T23:02:24.477Z,4.23
2023-05-12T23:04:52.669Z,3.90
2023-05-12T23:07:21.039Z,4.10
2023-05-12T23:09:50.558Z,4.00
2023-05-12T23:12:18.722Z,3.80
2023-05-12T23:14:46.848Z,3.97
2023-05-12T23:17:15.180Z,4.63
2023-05-12T23:19:43.369Z,4.93
2023-05-12T23:22:11.570Z,4.37
2023-05-12T23:24:40.604Z,4.70
2023-05-12T23:27:10.083Z,4.40
2023-05-12T23:29:38.265Z,4.40
2023-05-12T23:32:07.106Z,3.80
2023-05-12T23:34:36.349Z,3.77
2023-05-12T23:37:04.473Z,4.20
2023-05-12T23:39:32.645Z,4.90
2023-05-12T23:42:01.713Z,4.20
2023-05-12T23:44:31.222Z,4.67
2023-05-12T23:46:59.419Z,4.70
2023-05-12T23:49:27.557Z,4.57
2023-05-12T23:51:56.112Z,4.60
2023-05-12T23:54:24.374Z,5.00
2023-05-12T23:56:52.529Z,4.60
2023-05-12T23:59:20.658Z,4.03
